Time;durP1;ratioP1;P1;durP2;ratioP2;P2;SDS_P1;SDS_P2;PMS_P1;PMS_P2;Temp;Humidity;BMP_temperature;BMP_pressure;BME280_temperature;BME280_humidity;BME280_pressure;Samples;Min_cycle;Max_cycle;Signal;HPM_P1;HPM_P2
2023/09/07 00:00:44;;;;;;;6.53;3.60;;;19.80;63.80;;;;;;5055934;28;20025;-64
2023/09/07 00:03:09;;;;;;;5.90;3.47;;;19.80;64.10;;;;;;5055920;28;20025;-66
2023/09/07 00:05:35;;;;;;;4.72;3.38;;;19.90;64.60;;;;;;5056357;28;20025;-64
2023/09/07 00:08:01;;;;;;;5.82;3.65;;;19.80;64.30;;;;;;5055544;28;20430;-63
2023/09/07 00:10:27;;;;;;;6.18;3.42;;;19.80;64.50;;;;;;5056172;28;20024;-64
2023/09/07 00:12:53;;;;;;;5.85;3.60;;;19.80;64.70;;;;;;5056002;28;20388;-63
2023/09/07 00:15:20;;;;;;;4.47;3.55;;;19.80;64.80;;;;;;5055963;28;20017;-64
2023/09/07 00:17:46;;;;;;;6.57;3.70;;;19.80;64.70;;;;;;5055519;28;20112;-64
2023/09/07 00:20:14;;;;;;;6.25;3.97;;;19.80;64.60;;;;;;5055572;28;20104;-66
2023/09/07 00:22:40;;;;;;;4.65;3.28;;;19.80;64.70;;;;;;5055764;28;20017;-65
2023/09/07 00:25:06;;;;;;;6.35;3.70;;;19.80;65.00;;;;;;5055750;28;20021;-63
2023/09/07 00:27:34;;;;;;;5.40;3.47;;;19.70;65.10;;;;;;5055301;28;20028;-66
2023/09/07 00:30:00;;;;;;;4.82;3.60;;;19.70;65.10;;;;;;5055667;28;20032;-64
2023/09/07 00:32:26;;;;;;;4.22;3.30;;;19.70;64.90;;;;;;5055801;28;20431;-65
2023/09/07 00:34:52;;;;;;;5.85;3.67;;;19.80;64.90;;;;;;5055363;28;20017;-65
2023/09/07 00:37:18;;;;;;;7.63;4.00;;;19.80;64.90;;;;;;5055274;28;20033;-65
2023/09/07 00:39:43;;;;;;;8.00;3.55;;;19.80;64.90;;;;;;5055556;28;20108;-63
2023/09/07 00:42:09;;;;;;;10.85;4.25;;;19.80;64.70;;;;;;5055246;28;20047;-63
2023/09/07 00:44:35;;;;;;;4.78;3.58;;;19.80;64.90;;;;;;5055753;28;20033;-67
2023/09/07 00:47:02;;;;;;;6.78;3.53;;;19.80;64.80;;;;;;5055624;28;20040;-63
2023/09/07 00:49:28;;;;;;;7.63;3.65;;;19.80;64.90;;;;;;5055433;28;20029;-65
2023/09/07 00:51:54;;;;;;;5.55;3.47;;;19.70;65.00;;;;;;5054512;28;20112;-63
2023/09/07 00:54:20;;;;;;;5.38;3.53;;;19.70;64.90;;;;;;5055329;28;20021;-63
2023/09/07 00:56:46;;;;;;;5.57;3.50;;;19.70;64.80;;;;;;5056060;28;20351;-65
2023/09/07 00:59:13;;;;;;;5.82;3.30;;;19.70;64.70;;;;;;5055028;28;20443;-65
2023/09/07 01:01:40;;;;;;;4.63;3.30;;;19.70;64.70;;;;;;5055278;28;20028;-63
2023/09/07 01:04:06;;;;;;;4.00;3.00;;;19.70;64.70;;;;;;5054897;28;20147;-62
2023/09/07 01:06:43;;;;;;;4.10;3.20;;;19.70;64.90;;;;;;5054684;28;20100;-62
2023/09/07 01:09:19;;;;;;;4.75;3.20;;;19.80;64.60;;;;;;5055257;28;20477;-64
2023/09/07 01:11:45;;;;;;;5.75;3.00;;;19.80;64.50;;;;;;5055120;28;20036;-65
2023/09/07 01:14:11;;;;;;;5.88;3.22;;;19.70;64.60;;;;;;5054894;28;20025;-63
2023/09/07 01:16:40;;;;;;;6.18;3.38;;;19.70;64.40;;;;;;5055299;28;20123;-63
2023/09/07 01:19:06;;;;;;;4.22;3.03;;;19.70;64.80;;;;;;5055324;28;20017;-65
2023/09/07 01:21:37;;;;;;;4.40;3.22;;;19.70;64.60;;;;;;5054833;28;20438;-65
2023/09/07 01:24:10;;;;;;;4.00;3.20;;;19.70;64.50;;;;;;5055004;28;20025;-66
2023/09/07 01:26:39;;;;;;;;;;;19.70;64.70;;;;;;5056219;28;20028;-63
2023/09/07 01:29:08;;;;;;;3.33;2.65;;;19.60;65.30;;;;;;5054748;28;20261;-65
2023/09/07 01:31:38;;;;;;;4.10;2.97;;;19.60;64.70;;;;;;5054683;28;20039;-65
2023/09/07 01:34:06;;;;;;;4.18;3.28;;;19.60;64.80;;;;;;5054742;28;20098;-67
2023/09/07 01:36:32;;;;;;;4.43;3.10;;;19.50;64.90;;;;;;5054875;28;20029;-63
2023/09/07 01:38:58;;;;;;;4.30;3.17;;;19.50;65.10;;;;;;5054665;28;20108;-66
2023/09/07 01:41:24;;;;;;;7.10;3.75;;;19.50;65.20;;;;;;5054891;28;20100;-63
2023/09/07 01:43:50;;;;;;;4.28;2.80;;;19.40;65.60;;;;;;5054928;28;20447;-63
2023/09/07 01:46:16;;;;;;;3.25;2.85;;;19.40;65.20;;;;;;5054776;28;20100;-63
2023/09/07 01:48:42;;;;;;;5.72;3.10;;;19.40;65.40;;;;;;5054850;28;20397;-64
2023/09/07 01:51:08;;;;;;;4.07;3.47;;;19.40;65.50;;;;;;5054775;28;20021;-64
2023/09/07 01:53:34;;;;;;;5.75;3.30;;;19.40;65.50;;;;;;5054567;28;20365;-64
2023/09/07 01:56:00;;;;;;;4.25;3.10;;;19.30;65.80;;;;;;5054490;28;20447;-63
2023/09/07 01:58:26;;;;;;;5.47;3.25;;;19.20;65.70;;;;;;5054736;28;20059;-66
2023/09/07 02:00:56;;;;;;;5.30;3.78;;;19.20;65.80;;;;;;5054735;28;20500;-66
2023/09/07 02:03:22;;;;;;;4.40;3.33;;;19.20;66.10;;;;;;5056720;28;20029;-64
2023/09/07 02:05:49;;;;;;;3.97;3.33;;;19.20;66.20;;;;;;5058618;28;20100;-64
2023/09/07 02:08:15;;;;;;;5.25;3.20;;;19.10;66.20;;;;;;5036855;28;20061;-64
2023/09/07 02:10:41;;;;;;;4.43;3.22;;;19.10;66.30;;;;;;5038088;28;20025;-63
2023/09/07 02:13:06;;;;;;;5.93;3.47;;;19.10;66.30;;;;;;5038658;28;20060;-63
2023/09/07 02:15:33;;;;;;;6.55;3.90;;;19.10;66.40;;;;;;5038546;28;20021;-64
2023/09/07 02:17:59;;;;;;;6.15;3.67;;;19.00;66.60;;;;;;5037914;28;20029;-65
2023/09/07 02:20:25;;;;;;;4.97;3.22;;;19.00;66.60;;;;;;5038491;28;20026;-66
2023/09/07 02:22:51;;;;;;;6.57;2.88;;;18.90;66.70;;;;;;5037910;28;20021;-64
2023/09/07 02:25:16;;;;;;;5.03;2.90;;;19.00;66.70;;;;;;5038127;28;20032;-64
2023/09/07 02:27:42;;;;;;;4.07;2.92;;;18.90;66.70;;;;;;5037795;28;20406;-65
2023/09/07 02:30:09;;;;;;;4.07;3.08;;;19.00;66.70;;;;;;5038304;28;20057;-65
2023/09/07 02:32:35;;;;;;;4.40;3.35;;;19.00;66.80;;;;;;5037882;28;20025;-63
2023/09/07 02:35:01;;;;;;;5.82;3.60;;;18.90;67.10;;;;;;5038227;28;20311;-63
2023/09/07 02:37:27;;;;;;;4.35;3.30;;;18.90;67.00;;;;;;5037550;28;20026;-65
2023/09/07 02:39:53;;;;;;;3.80;2.88;;;18.90;67.20;;;;;;5037609;28;20034;-64
2023/09/07 02:42:19;;;;;;;5.93;3.35;;;18.90;67.10;;;;;;5037539;28;20021;-65
2023/09/07 02:44:45;;;;;;;5.90;3.40;;;18.90;67.20;;;;;;5037494;28;20036;-63
2023/09/07 02:47:11;;;;;;;5.28;3.20;;;18.90;67.10;;;;;;5037455;28;20021;-66
2023/09/07 02:49:37;;;;;;;7.32;3.60;;;18.90;67.10;;;;;;5036447;28;20033;-65
2023/09/07 02:52:03;;;;;;;5.07;3.30;;;18.90;66.80;;;;;;5037830;28;20026;-63
2023/09/07 02:54:29;;;;;;;5.93;3.47;;;19.00;66.90;;;;;;5037307;28;20036;-65
2023/09/07 02:56:55;;;;;;;5.78;3.20;;;19.00;66.80;;;;;;5037173;28;20028;-66
2023/09/07 02:59:21;;;;;;;4.00;3.03;;;19.00;66.70;;;;;;5037773;28;20040;-66
2023/09/07 03:01:47;;;;;;;5.00;3.00;;;19.00;66.60;;;;;;5037468;28;20033;-63
2023/09/07 03:04:13;;;;;;;4.20;3.00;;;19.00;66.60;;;;;;5037194;28;20033;-65
2023/09/07 03:06:39;;;;;;;6.95;3.40;;;18.90;66.70;;;;;;5037875;28;20026;-66
2023/09/07 03:09:08;;;;;;;3.15;2.85;;;18.90;66.80;;;;;;5056874;28;20029;-64
2023/09/07 03:11:35;;;;;;;3.55;2.83;;;18.80;67.00;;;;;;5057042;28;20055;-63
2023/09/07 03:14:01;;;;;;;4.78;3.40;;;18.80;67.10;;;;;;5056521;28;20064;-66
2023/09/07 03:16:27;;;;;;;4.50;3.30;;;18.70;67.30;;;;;;5056687;28;20021;-63
2023/09/07 03:18:53;;;;;;;5.00;3.40;;;18.60;67.50;;;;;;5056768;28;20036;-64
2023/09/07 03:21:19;;;;;;;5.03;3.05;;;18.60;67.60;;;;;;5056924;28;20075;-64
2023/09/07 03:23:45;;;;;;;3.58;2.95;;;18.60;67.80;;;;;;5056672;28;20040;-63
2023/09/07 03:26:11;;;;;;;4.38;3.00;;;18.60;67.90;;;;;;5056829;28;20021;-65
2023/09/07 03:28:37;;;;;;;4.85;3.05;;;18.60;68.20;;;;;;5038996;28;20054;-65
2023/09/07 03:31:04;;;;;;;3.72;2.80;;;18.50;68.00;;;;;;5056471;28;20031;-65
2023/09/07 03:33:30;;;;;;;4.20;3.22;;;18.50;68.20;;;;;;5057223;28;20020;-66
2023/09/07 03:35:58;;;;;;;5.13;3.10;;;18.50;68.40;;;;;;5056324;28;20354;-65
2023/09/07 03:38:25;;;;;;;6.25;3.53;;;18.40;68.50;;;;;;5056362;28;20036;-63
2023/09/07 03:40:50;;;;;;;6.25;3.33;;;18.40;68.50;;;;;;5056620;28;20021;-63
2023/09/07 03:43:17;;;;;;;6.15;3.17;;;18.40;68.70;;;;;;5038650;28;20033;-65
2023/09/07 03:45:43;;;;;;;3.55;3.13;;;18.40;68.80;;;;;;5056313;28;20347;-66
2023/09/07 03:48:09;;;;;;;6.30;3.30;;;18.40;68.70;;;;;;5038532;28;20451;-64
2023/09/07 03:50:36;;;;;;;5.05;3.50;;;18.40;68.80;;;;;;5056097;28;20025;-64
2023/09/07 03:53:02;;;;;;;7.60;3.72;;;18.40;68.80;;;;;;5056050;28;20029;-65
2023/09/07 03:55:27;;;;;;;5.45;3.38;;;18.40;69.10;;;;;;5056549;28;20147;-66
2023/09/07 03:57:53;;;;;;;6.13;3.65;;;18.30;69.10;;;;;;5055994;28;20021;-63
2023/09/07 04:00:19;;;;;;;6.15;3.80;;;18.30;69.20;;;;;;5055981;28;20052;-66
2023/09/07 04:02:45;;;;;;;4.35;3.35;;;18.20;69.30;;;;;;5056142;28;20485;-66
2023/09/07 04:05:12;;;;;;;5.75;3.78;;;18.20;69.40;;;;;;5056381;28;20029;-66
2023/09/07 04:07:38;;;;;;;4.22;3.20;;;18.20;69.40;;;;;;5055578;28;20064;-64
2023/09/07 04:10:05;;;;;;;5.38;3.38;;;18.10;69.60;;;;;;5056070;28;20017;-66
2023/09/07 04:12:33;;;;;;;6.38;3.65;;;18.10;69.70;;;;;;5055907;28;20060;-63
2023/09/07 04:15:04;;;;;;;6.57;3.45;;;18.00;69.70;;;;;;5055635;28;20024;-65
2023/09/07 04:17:30;;;;;;;5.22;3.10;;;18.00;69.80;;;;;;5055800;28;20024;-64
2023/09/07 04:19:56;;;;;;;4.25;3.22;;;17.90;69.90;;;;;;5038005;28;20032;-64
2023/09/07 04:22:22;;;;;;;4.35;3.28;;;17.90;69.90;;;;;;5055595;28;20375;-65
2023/09/07 04:24:49;;;;;;;3.70;3.08;;;17.90;70.00;;;;;;5056068;28;20459;-63
2023/09/07 04:27:15;;;;;;;5.70;4.03;;;17.90;70.00;;;;;;5055291;28;20402;-66
2023/09/07 04:29:41;;;;;;;5.68;3.40;;;17.80;70.10;;;;;;5055748;28;20029;-63
2023/09/07 04:32:07;;;;;;;4.53;3.40;;;17.80;70.30;;;;;;5055860;28;20033;-66
2023/09/07 04:34:33;;;;;;;8.18;3.65;;;17.80;70.20;;;;;;5055365;28;20093;-64
2023/09/07 04:36:59;;;;;;;7.00;4.20;;;17.80;70.40;;;;;;5055242;28;20025;-64
2023/09/07 04:39:25;;;;;;;5.03;3.60;;;17.80;70.70;;;;;;5055293;28;20025;-63
2023/09/07 04:41:52;;;;;;;7.63;3.65;;;17.90;70.40;;;;;;5055289;28;20057;-64
2023/09/07 04:44:18;;;;;;;6.13;3.92;;;17.90;70.30;;;;;;5055244;28;20017;-65
2023/09/07 04:46:44;;;;;;;4.35;3.30;;;17.90;70.30;;;;;;5055390;28;20044;-63
2023/09/07 04:49:10;;;;;;;6.20;3.53;;;17.90;70.20;;;;;;5055144;28;20017;-63
2023/09/07 04:51:36;;;;;;;5.50;3.15;;;17.90;70.10;;;;;;5055034;28;20040;-63
2023/09/07 04:54:02;;;;;;;4.03;3.17;;;18.00;70.10;;;;;;5055330;28;20100;-63
2023/09/07 04:56:28;;;;;;;5.60;3.50;;;18.00;70.00;;;;;;5055259;28;20036;-65
2023/09/07 04:58:55;;;;;;;5.50;3.50;;;18.10;69.70;;;;;;5054975;28;20018;-65
2023/09/07 05:01:20;;;;;;;4.47;3.40;;;18.20;69.80;;;;;;5055292;28;20021;-67
2023/09/07 05:03:46;;;;;;;4.80;3.47;;;18.30;69.80;;;;;;5055301;28;20347;-66
2023/09/07 05:06:13;;;;;;;7.47;3.72;;;18.90;69.40;;;;;;5054914;28;20044;-64
2023/09/07 05:08:39;;;;;;;5.82;3.92;;;19.70;68.10;;;;;;5054786;28;20048;-63
2023/09/07 05:11:05;;;;;;;5.43;3.67;;;20.60;66.20;;;;;;5054916;28;20025;-66
2023/09/07 05:13:32;;;;;;;5.32;3.40;;;21.60;64.20;;;;;;5054994;28;20049;-65
2023/09/07 05:16:04;;;;;;;5.22;3.47;;;22.50;62.00;;;;;;5054828;28;20052;-63
2023/09/07 05:18:30;;;;;;;6.00;3.80;;;23.40;60.00;;;;;;5054929;28;20056;-65
2023/09/07 05:20:57;;;;;;;5.43;3.95;;;24.30;57.80;;;;;;5054786;28;20302;-63
2023/09/07 05:23:24;;;;;;;4.60;3.50;;;25.10;55.70;;;;;;5054793;28;20044;-64
2023/09/07 05:25:52;;;;;;;6.03;3.75;;;25.90;54.10;;;;;;5055062;28;20091;-65
2023/09/07 05:28:19;;;;;;;5.32;3.60;;;26.70;52.50;;;;;;5054650;28;20057;-65
2023/09/07 05:30:45;;;;;;;5.80;3.20;;;27.50;50.70;;;;;;5057186;28;20097;-64
2023/09/07 05:33:14;;;;;;;4.22;3.15;;;28.30;49.30;;;;;;5057407;28;20078;-65
2023/09/07 05:35:41;;;;;;;4.70;3.30;;;28.90;48.00;;;;;;5075029;28;20507;-66
2023/09/07 05:38:08;;;;;;;6.65;3.75;;;29.70;46.70;;;;;;5067451;28;20435;-64
2023/09/07 05:40:40;;;;;;;7.50;4.10;;;30.40;45.20;;;;;;5073570;28;21433;-64
2023/09/07 05:43:06;;;;;;;5.10;3.42;;;31.10;43.70;;;;;;5058423;28;20032;-65
2023/09/07 05:45:38;;;;;;;8.57;4.35;;;31.90;43.10;;;;;;5069353;28;20032;-64
2023/09/07 05:48:08;;;;;;;5.13;3.50;;;32.60;41.90;;;;;;5075244;28;20047;-66
2023/09/07 05:50:36;;;;;;;5.03;3.90;;;33.30;40.30;;;;;;5076783;28;20066;-66
2023/09/07 05:53:04;;;;;;;4.15;3.40;;;33.90;39.60;;;;;;5077650;28;20020;-66
2023/09/07 05:55:30;;;;;;;4.75;3.53;;;34.70;39.00;;;;;;5077106;28;20032;-64
2023/09/07 05:57:57;;;;;;;4.50;3.05;;;35.40;37.90;;;;;;5077029;28;20013;-66
2023/09/07 06:00:24;;;;;;;5.30;3.28;;;35.90;37.00;;;;;;5076398;28;20469;-67
2023/09/07 06:02:51;;;;;;;4.28;3.28;;;36.60;36.20;;;;;;5071250;28;20357;-67
2023/09/07 06:05:17;;;;;;;5.63;3.22;;;37.30;35.50;;;;;;5065489;28;20103;-68
2023/09/07 06:07:44;;;;;;;3.63;2.97;;;38.00;35.10;;;;;;5052982;28;20064;-68
2023/09/07 06:10:10;;;;;;;5.20;3.10;;;38.80;34.10;;;;;;5068256;28;20032;-67
2023/09/07 06:12:36;;;;;;;7.05;2.92;;;39.40;33.40;;;;;;5067519;28;20025;-68
2023/09/07 06:15:03;;;;;;;5.95;3.97;;;40.10;32.20;;;;;;5069341;28;20104;-68
2023/09/07 06:17:29;;;;;;;6.60;4.10;;;40.70;31.50;;;;;;5043738;28;20327;-68
2023/09/07 06:20:02;;;;;;;6.75;3.88;;;41.30;30.80;;;;;;5066211;28;20025;-64
2023/09/07 06:22:29;;;;;;;5.00;3.55;;;41.80;30.20;;;;;;5076901;28;20028;-66
2023/09/07 06:24:56;;;;;;;4.13;3.20;;;42.30;29.70;;;;;;5075628;28;20036;-68
2023/09/07 06:27:22;;;;;;;4.85;3.22;;;42.70;28.30;;;;;;5076721;28;20017;-66
2023/09/07 06:29:49;;;;;;;4.63;2.75;;;42.90;27.90;;;;;;5074217;28;20347;-68
2023/09/07 06:32:15;;;;;;;5.65;3.35;;;43.10;28.00;;;;;;5075232;28;20078;-69
2023/09/07 06:34:41;;;;;;;3.92;3.10;;;43.50;27.40;;;;;;5060751;28;20554;-66
2023/09/07 06:37:07;;;;;;;5.03;3.10;;;43.70;26.60;;;;;;5071312;28;20055;-67
2023/09/07 06:39:33;;;;;;;6.35;2.72;;;43.70;25.90;;;;;;5044916;28;20043;-69
2023/09/07 06:41:59;;;;;;;4.85;3.00;;;43.80;26.10;;;;;;5067401;28;20443;-67
2023/09/07 06:44:25;;;;;;;6.90;3.00;;;43.90;25.70;;;;;;5066628;28;20361;-68
2023/09/07 06:46:51;;;;;;;4.40;3.20;;;44.30;25.80;;;;;;5060348;28;20099;-68
2023/09/07 06:49:17;;;;;;;5.38;4.18;;;44.60;25.60;;;;;;5073550;28;20032;-70
2023/09/07 06:51:43;;;;;;;5.40;3.25;;;44.80;25.10;;;;;;5070486;28;20350;-65
2023/09/07 06:54:09;;;;;;;4.90;3.17;;;44.90;24.70;;;;;;5053349;28;20446;-65
2023/09/07 06:56:35;;;;;;;3.63;2.80;;;45.00;24.60;;;;;;5064861;28;20032;-65
2023/09/07 06:59:01;;;;;;;3.88;2.83;;;45.10;24.60;;;;;;5055970;28;20045;-67
2023/09/07 07:01:29;;;;;;;4.10;2.90;;;45.40;24.50;;;;;;5065117;28;20051;-65
2023/09/07 07:03:57;;;;;;;5.95;3.10;;;45.30;24.40;;;;;;5068644;28;20051;-66
2023/09/07 07:06:25;;;;;;;3.60;2.80;;;45.50;24.70;;;;;;5065231;28;20028;-66
2023/09/07 07:08:52;;;;;;;5.20;3.00;;;45.90;24.80;;;;;;5062231;28;20060;-66
2023/09/07 07:11:18;;;;;;;2.90;2.60;;;46.10;24.20;;;;;;5063594;28;20066;-67
2023/09/07 07:13:43;;;;;;;4.35;3.00;;;46.20;24.30;;;;;;5061854;28;20068;-66
2023/09/07 07:16:09;;;;;;;3.25;2.60;;;46.00;23.70;;;;;;5073488;28;20541;-67
2023/09/07 07:18:35;;;;;;;3.55;2.75;;;45.70;23.70;;;;;;5068080;28;20037;-66
2023/09/07 07:21:01;;;;;;;4.53;2.80;;;45.20;23.50;;;;;;5052478;28;20035;-67
2023/09/07 07:23:26;;;;;;;3.92;2.65;;;44.70;24.00;;;;;;5072103;28;20335;-66
2023/09/07 07:25:52;;;;;;;4.07;2.80;;;44.70;24.10;;;;;;5075960;28;20112;-66
2023/09/07 07:28:18;;;;;;;3.58;2.90;;;44.40;23.60;;;;;;5076224;28;20058;-67
2023/09/07 07:30:44;;;;;;;5.68;2.90;;;44.00;23.90;;;;;;5075802;28;20039;-67
2023/09/07 07:33:11;;;;;;;4.05;2.85;;;43.50;24.20;;;;;;5074291;28;20361;-66
2023/09/07 07:35:37;;;;;;;5.18;2.78;;;42.30;25.00;;;;;;5071905;28;20029;-67
2023/09/07 07:38:06;;;;;;;6.43;3.17;;;40.80;26.40;;;;;;5058240;28;20514;-66
2023/09/07 07:40:32;;;;;;;6.68;2.78;;;39.40;28.10;;;;;;5063495;28;20094;-65
2023/09/07 07:42:58;;;;;;;4.43;3.00;;;38.30;28.80;;;;;;5064098;28;20029;-67
2023/09/07 07:45:24;;;;;;;6.45;2.97;;;37.30;29.80;;;;;;5064263;28;20021;-66
2023/09/07 07:47:51;;;;;;;4.07;2.97;;;36.40;30.90;;;;;;5065727;28;20036;-65
2023/09/07 07:50:21;;;;;;;4.85;3.00;;;35.70;31.70;;;;;;5064146;28;20100;-65
2023/09/07 07:52:47;;;;;;;7.15;3.40;;;35.10;32.70;;;;;;5065829;28;20040;-65
2023/09/07 07:55:13;;;;;;;5.97;3.28;;;34.70;33.30;;;;;;5063394;28;20067;-66
2023/09/07 07:57:39;;;;;;;6.97;3.20;;;34.40;33.90;;;;;;5068461;28;20028;-66
2023/09/07 08:00:07;;;;;;;5.45;3.25;;;34.10;34.60;;;;;;5061575;28;20020;-66
2023/09/07 08:02:33;;;;;;;3.83;3.35;;;33.90;34.90;;;;;;5064587;28;20111;-66
2023/09/07 08:04:59;;;;;;;5.47;3.00;;;33.80;34.20;;;;;;5069878;28;20107;-66
2023/09/07 08:07:26;;;;;;;5.35;3.00;;;33.40;34.60;;;;;;5066721;28;20053;-66
2023/09/07 08:09:52;;;;;;;4.93;3.22;;;33.20;34.60;;;;;;5064442;28;20051;-65
2023/09/07 08:12:20;;;;;;;4.55;3.33;;;32.90;35.00;;;;;;5062283;28;20040;-65
2023/09/07 08:14:46;;;;;;;5.32;3.72;;;32.70;35.20;;;;;;5065043;28;20025;-64
2023/09/07 08:17:12;;;;;;;3.53;3.17;;;32.70;34.70;;;;;;5064760;28;20365;-66
2023/09/07 08:19:38;;;;;;;5.00;3.35;;;32.20;35.40;;;;;;5060632;28;20021;-65
2023/09/07 08:22:05;;;;;;;4.32;3.70;;;31.90;36.80;;;;;;5066387;28;20031;-66
2023/09/07 08:24:32;;;;;;;5.22;3.60;;;31.90;36.90;;;;;;5049641;28;20039;-65
2023/09/07 08:27:00;;;;;;;4.80;3.65;;;31.70;37.00;;;;;;5070660;28;20033;-64
2023/09/07 08:29:26;;;;;;;4.50;3.63;;;31.60;36.40;;;;;;5048291;28;20037;-66
2023/09/07 08:31:57;;;;;;;4.20;3.80;;;31.50;37.10;;;;;;5055929;28;20032;-65
2023/09/07 08:34:23;;;;;;;5.28;3.70;;;30.90;37.60;;;;;;5069718;28;20068;-65
2023/09/07 08:36:53;;;;;;;5.65;3.70;;;30.70;38.30;;;;;;5065141;28;20074;-65
2023/09/07 08:39:21;;;;;;;8.02;3.75;;;30.70;38.60;;;;;;5048094;28;20020;-66
2023/09/07 08:41:47;;;;;;;6.20;4.10;;;30.60;38.70;;;;;;5066314;28;20028;-65
2023/09/07 08:44:17;;;;;;;24.50;19.45;;;30.60;38.40;;;;;;5072042;28;20453;-65
2023/09/07 08:46:44;;;;;;;68.45;55.10;;;30.40;38.90;;;;;;5054765;28;20036;-64
2023/09/07 08:49:13;;;;;;;40.15;36.05;;;30.40;40.20;;;;;;5074233;28;20040;-64
2023/09/07 08:51:42;;;;;;;7.30;5.05;;;30.20;39.30;;;;;;5071832;28;20366;-65
2023/09/07 08:54:12;;;;;;;5.50;3.63;;;30.20;39.80;;;;;;5067853;28;20032;-65
2023/09/07 08:56:38;;;;;;;5.13;3.58;;;30.00;39.00;;;;;;5074263;28;20027;-65
2023/09/07 08:59:04;;;;;;;5.63;3.85;;;29.90;39.30;;;;;;5074214;28;20055;-66
2023/09/07 09:01:33;;;;;;;5.13;3.70;;;29.70;39.60;;;;;;5074596;28;20063;-64
2023/09/07 09:03:59;;;;;;;6.78;3.53;;;29.90;38.80;;;;;;5074372;28;20024;-64
2023/09/07 09:06:25;;;;;;;4.88;3.58;;;29.90;37.90;;;;;;5036544;28;20029;-65
2023/09/07 09:08:56;;;;;;;5.40;3.83;;;29.90;38.70;;;;;;5074159;28;20048;-65
2023/09/07 09:11:23;;;;;;;4.75;3.63;;;29.50;38.30;;;;;;5056338;28;20064;-64
2023/09/07 09:13:52;;;;;;;5.63;3.65;;;29.60;39.00;;;;;;5059396;28;20033;-63
2023/09/07 09:16:18;;;;;;;13.18;3.90;;;29.50;39.20;;;;;;5036394;28;20029;-65
2023/09/07 09:18:54;;;;;;;5.57;3.60;;;29.40;39.60;;;;;;5074453;28;20345;-64
2023/09/07 09:21:25;;;;;;;6.07;3.97;;;29.30;40.50;;;;;;5060602;28;20028;-65
2023/09/07 09:23:53;;;;;;;10.38;3.60;;;29.40;39.90;;;;;;5078446;28;20033;-63
2023/09/07 09:26:19;;;;;;;4.55;3.70;;;29.20;39.90;;;;;;5078113;28;20056;-65
2023/09/07 09:28:46;;;;;;;5.97;3.97;;;29.10;39.80;;;;;;5078712;28;20043;-65
2023/09/07 09:31:13;;;;;;;10.45;3.95;;;29.00;39.60;;;;;;5077758;28;20028;-65
2023/09/07 09:33:47;;;;;;;7.55;4.00;;;29.20;39.40;;;;;;5078292;28;20024;-66
2023/09/07 09:38:39;;;;;;;6.18;3.97;;;29.20;40.30;;;;;;5062980;28;20316;-64
2023/09/07 09:41:09;;;;;;;5.47;3.97;;;29.30;40.50;;;;;;5076714;28;20096;-64
2023/09/07 09:43:35;;;;;;;5.63;3.72;;;29.50;42.20;;;;;;5077526;28;20033;-64
2023/09/07 09:46:03;;;;;;;5.13;3.90;;;29.50;40.20;;;;;;5077186;28;20020;-65
2023/09/07 09:48:31;;;;;;;5.72;3.97;;;29.50;40.00;;;;;;5077026;28;20461;-65
2023/09/07 09:51:04;;;;;;;7.63;4.22;;;29.50;40.30;;;;;;5076127;28;20056;-66
2023/09/07 09:53:31;;;;;;;5.60;3.63;;;29.60;40.80;;;;;;5077865;28;20031;-64
2023/09/07 09:55:57;;;;;;;5.30;3.67;;;29.70;39.40;;;;;;5077182;28;20024;-65
2023/09/07 09:58:23;;;;;;;4.55;3.40;;;29.70;40.10;;;;;;5077556;28;20025;-66
2023/09/07 10:00:55;;;;;;;4.80;3.83;;;29.70;39.40;;;;;;5077158;28;20028;-65
2023/09/07 10:03:44;;;;;;;5.82;3.85;;;29.70;39.80;;;;;;5077450;28;20203;-65
2023/09/07 10:06:20;;;;;;;4.60;3.33;;;29.70;39.50;;;;;;5074980;28;20132;-64
2023/09/07 10:08:58;;;;;;;5.28;3.25;;;29.50;37.50;;;;;;5076701;28;20056;-63
2023/09/07 10:11:37;;;;;;;6.13;3.60;;;29.60;37.10;;;;;;5075141;28;20092;-66
2023/09/07 10:14:08;;;;;;;6.68;3.55;;;29.60;37.50;;;;;;5077595;28;20033;-66
2023/09/07 10:16:52;;;;;;;3.97;3.33;;;29.50;35.50;;;;;;5071612;28;20031;-65
2023/09/07 10:19:23;;;;;;;6.05;3.30;;;29.50;37.10;;;;;;5055154;28;20104;-66
2023/09/07 10:21:50;;;;;;;5.97;3.72;;;29.60;35.40;;;;;;5056992;28;20099;-66
2023/09/07 10:24:30;;;;;;;7.40;3.53;;;29.50;37.40;;;;;;5056985;28;20048;-65
2023/09/07 10:27:02;;;;;;;5.85;3.70;;;29.50;38.10;;;;;;5067091;28;20025;-65
2023/09/07 10:29:28;;;;;;;5.10;3.53;;;29.50;37.90;;;;;;5075480;28;20044;-65
2023/09/07 10:31:54;;;;;;;4.30;3.45;;;29.50;37.60;;;;;;5064151;28;20029;-66
2023/09/07 10:34:22;;;;;;;6.13;3.70;;;29.50;37.80;;;;;;5075456;28;20044;-66
2023/09/07 10:36:51;;;;;;;4.95;3.78;;;29.60;38.40;;;;;;5048000;28;20032;-65
2023/09/07 10:39:17;;;;;;;6.47;3.90;;;29.60;38.90;;;;;;5059003;28;20085;-65
2023/09/07 10:41:44;;;;;;;6.03;3.90;;;29.50;39.20;;;;;;5076145;28;20451;-65
2023/09/07 10:44:11;;;;;;;9.23;3.70;;;29.50;39.10;;;;;;5077347;28;20082;-65
2023/09/07 10:46:39;;;;;;;7.43;3.80;;;29.50;40.00;;;;;;5077062;28;20040;-65
2023/09/07 10:49:09;;;;;;;6.38;3.85;;;29.60;39.30;;;;;;5075394;28;20139;-65
2023/09/07 10:51:46;;;;;;;7.20;3.97;;;29.60;38.90;;;;;;5077522;28;20084;-65
2023/09/07 10:54:17;;;;;;;5.57;4.10;;;29.70;38.20;;;;;;5077983;28;20029;-65
2023/09/07 10:56:45;;;;;;;5.90;3.38;;;29.80;37.50;;;;;;5077812;28;20089;-65
2023/09/07 10:59:15;;;;;;;6.50;3.70;;;29.80;36.30;;;;;;5077853;28;20021;-65
2023/09/07 11:01:45;;;;;;;8.77;3.70;;;29.70;39.10;;;;;;5077134;28;20017;-65
2023/09/07 11:04:14;;;;;;;5.60;3.97;;;29.60;39.30;;;;;;5059515;28;20032;-65
2023/09/07 11:06:41;;;;;;;5.88;3.67;;;29.60;38.60;;;;;;5077036;28;20492;-65
2023/09/07 11:09:12;;;;;;;7.82;3.67;;;29.50;37.10;;;;;;5076913;28;20052;-64
2023/09/07 11:11:38;;;;;;;5.85;4.10;;;29.50;37.90;;;;;;5059358;28;20404;-64
2023/09/07 11:14:05;;;;;;;5.68;3.90;;;29.50;37.00;;;;;;5077232;28;20025;-65
2023/09/07 11:16:33;;;;;;;5.63;3.97;;;29.40;37.60;;;;;;5077421;28;20074;-65
2023/09/07 11:19:04;;;;;;;6.53;3.47;;;29.40;37.00;;;;;;5076797;28;20086;-64
2023/09/07 11:21:32;;;;;;;4.35;3.45;;;29.40;37.60;;;;;;5059638;28;20056;-65
2023/09/07 11:23:58;;;;;;;6.07;3.90;;;29.40;37.50;;;;;;5076994;28;20032;-65
2023/09/07 11:26:24;;;;;;;4.70;3.92;;;29.50;37.60;;;;;;5076677;28;20456;-65
2023/09/07 11:28:51;;;;;;;3.80;3.40;;;29.50;38.60;;;;;;5077234;28;20024;-65
2023/09/07 11:31:20;;;;;;;4.82;3.72;;;29.60;38.80;;;;;;5076527;28;20331;-65
2023/09/07 11:33:48;;;;;;;9.20;3.72;;;29.60;38.50;;;;;;5076508;28;20115;-65
2023/09/07 11:36:15;;;;;;;7.47;3.70;;;29.60;38.50;;;;;;5058069;28;20021;-64
2023/09/07 11:38:44;;;;;;;4.80;3.30;;;29.70;38.80;;;;;;5076409;28;20090;-65
2023/09/07 11:41:11;;;;;;;5.90;3.50;;;29.90;37.50;;;;;;5076402;28;20099;-65
2023/09/07 11:43:39;;;;;;;5.65;3.50;;;29.70;36.30;;;;;;5058724;28;20140;-65
2023/09/07 11:46:05;;;;;;;4.68;3.70;;;29.70;36.50;;;;;;5058901;28;20327;-65
2023/09/07 11:48:32;;;;;;;7.22;3.80;;;29.60;36.80;;;;;;5058632;28;20449;-65
2023/09/07 11:50:58;;;;;;;6.18;4.30;;;29.60;36.70;;;;;;5076383;28;20029;-65
2023/09/07 11:53:24;;;;;;;8.13;4.35;;;29.60;36.70;;;;;;5058608;28;20024;-64
2023/09/07 11:55:51;;;;;;;7.40;3.88;;;29.60;36.90;;;;;;5076470;28;20089;-65
2023/09/07 11:58:17;;;;;;;5.75;3.58;;;29.70;37.10;;;;;;5058389;28;20070;-65
2023/09/07 12:00:43;;;;;;;4.85;3.72;;;29.80;37.00;;;;;;5058466;28;20346;-64
2023/09/07 12:03:09;;;;;;;5.32;4.00;;;29.80;36.50;;;;;;5076241;28;20021;-64
2023/09/07 12:05:37;;;;;;;5.07;3.40;;;29.80;36.60;;;;;;5075944;28;20017;-65
2023/09/07 12:08:04;;;;;;;5.78;3.78;;;29.80;36.60;;;;;;5075635;28;20062;-65
2023/09/07 12:10:30;;;;;;;5.70;3.70;;;29.90;37.00;;;;;;5075869;28;20023;-65
2023/09/07 12:12:56;;;;;;;4.60;3.30;;;29.90;36.80;;;;;;5076258;28;20044;-64
2023/09/07 12:15:23;;;;;;;3.95;3.40;;;30.00;36.80;;;;;;5076019;28;20024;-64
2023/09/07 12:17:54;;;;;;;3.90;3.50;;;30.10;36.50;;;;;;5075807;28;20032;-65
2023/09/07 12:20:21;;;;;;;8.85;3.75;;;30.10;36.60;;;;;;5075646;28;20404;-65
2023/09/07 12:22:48;;;;;;;8.50;3.80;;;30.00;35.80;;;;;;5075554;28;20085;-64
2023/09/07 12:25:15;;;;;;;6.78;3.83;;;29.90;36.10;;;;;;5075510;28;20396;-65
2023/09/07 12:27:43;;;;;;;4.97;3.33;;;29.80;35.90;;;;;;5058036;28;20111;-66
2023/09/07 12:30:12;;;;;;;4.57;3.72;;;29.80;36.50;;;;;;5075708;28;20359;-65
2023/09/07 12:32:40;;;;;;;5.57;3.83;;;29.90;36.50;;;;;;5075407;28;20033;-65
2023/09/07 12:35:08;;;;;;;5.93;3.80;;;30.00;36.60;;;;;;5041494;28;20078;-64
2023/09/07 12:37:35;;;;;;;6.32;3.60;;;30.10;36.50;;;;;;5075213;28;20033;-64
2023/09/07 12:40:11;;;;;;;4.80;3.28;;;30.20;36.30;;;;;;5075687;28;20042;-64
2023/09/07 12:42:41;;;;;;;5.28;4.03;;;30.30;36.20;;;;;;5059802;28;20036;-65
2023/09/07 12:45:11;;;;;;;6.32;3.47;;;30.20;36.50;;;;;;5058830;28;20020;-64
2023/09/07 12:47:38;;;;;;;4.55;3.25;;;30.30;36.50;;;;;;5075409;28;20457;-66
2023/09/07 12:50:05;;;;;;;4.30;3.58;;;30.30;36.90;;;;;;5075104;28;20025;-64